createdAt,value
2019-01-28T00:01:32.938Z,97948.61
2019-01-28T00:03:57.414Z,97957.78
2019-01-28T00:06:21.806Z,97958.55
2019-01-28T00:08:46.311Z,97956.23
2019-01-28T00:11:10.720Z,97956.69
2019-01-28T00:13:35.178Z,97959.31
2019-01-28T00:15:59.602Z,97957.58
2019-01-28T00:18:23.998Z,97958.79
2019-01-28T00:20:48.433Z,97954.24
2019-01-28T00:23:12.839Z,97958.51
2019-01-28T00:25:37.237Z,97957.17
2019-01-28T00:28:01.648Z,97955.19
2019-01-28T00:30:26.057Z,97959.78
2019-01-28T00:32:50.452Z,97970.94
2019-01-28T00:35:14.831Z,97965.89
2019-01-28T00:37:39.236Z,97967.42
2019-01-28T00:40:05.065Z,97967.73
2019-01-28T00:42:29.463Z,97968.34
2019-01-28T00:44:53.878Z,97966.81
2019-01-28T00:47:18.282Z,97974.14
2019-01-28T00:49:42.690Z,97971.52
2019-01-28T00:52:07.063Z,97973.53
2019-01-28T00:54:31.467Z,97972.61
2019-01-28T00:56:55.864Z,97973.37
2019-01-28T00:59:20.256Z,97972.78
2019-01-28T01:01:44.680Z,97968.80
2019-01-28T01:04:09.086Z,97975.83
2019-01-28T01:06:33.521Z,97979.16
2019-01-28T01:08:57.902Z,97983.45
2019-01-28T01:11:22.296Z,97979.47
2019-01-28T01:13:46.711Z,97983.55
2019-01-28T01:16:11.101Z,97981.75
2019-01-28T01:18:35.521Z,97980.09
2019-01-28T01:20:59.931Z,97985.50
2019-01-28T01:23:24.342Z,97985.12
2019-01-28T01:25:48.748Z,97989.11
2019-01-28T01:28:13.163Z,97986.03
2019-01-28T01:30:37.558Z,97990.17
2019-01-28T01:33:01.969Z,97986.03
2019-01-28T01:35:26.455Z,97988.97
2019-01-28T01:37:52.358Z,98001.17
2019-01-28T01:40:17.362Z,98001.61
2019-01-28T01:42:41.834Z,98008.97
2019-01-28T01:45:09.599Z,98007.73
2019-01-28T01:47:36.759Z,98010.48
2019-01-28T01:50:01.160Z,98010.94
2019-01-28T01:52:25.558Z,98013.53
2019-01-28T01:54:50.039Z,98017.97
2019-01-28T01:57:14.384Z,98017.34
2019-01-28T01:59:38.782Z,98020.11
2019-01-28T02:02:03.279Z,98015.95
2019-01-28T02:04:27.660Z,98020.37
2019-01-28T02:06:52.092Z,98017.81
2019-01-28T02:09:16.489Z,98026.50
2019-01-28T02:11:40.910Z,98022.53
2019-01-28T02:14:05.380Z,98024.68
2019-01-28T02:16:31.322Z,98021.63
2019-01-28T02:18:55.711Z,98024.19
2019-01-28T02:21:20.142Z,98017.64
2019-01-28T02:23:44.515Z,98023.75
2019-01-28T02:26:08.921Z,98029.24
2019-01-28T02:28:33.323Z,98027.10
2019-01-28T02:30:57.730Z,98024.52
2019-01-28T02:33:22.135Z,98024.95
2019-01-28T02:35:46.543Z,98024.59
2019-01-28T02:38:10.943Z,98022.88
2019-01-28T02:40:35.338Z,98023.33
2019-01-28T02:42:59.736Z,98022.34
2019-01-28T02:45:24.322Z,98018.03
2019-01-28T02:47:48.709Z,98023.84
2019-01-28T02:50:15.514Z,98027.09
2019-01-28T02:52:39.904Z,98019.77
2019-01-28T02:55:05.195Z,98021.44
2019-01-28T02:57:29.591Z,98018.25
2019-01-28T02:59:54.007Z,98018.22
2019-01-28T03:02:18.420Z,98014.88
2019-01-28T03:04:42.810Z,98018.05
2019-01-28T03:07:07.235Z,98017.95
2019-01-28T03:09:31.634Z,98014.88
2019-01-28T03:11:56.028Z,98018.38
2019-01-28T03:14:20.434Z,98022.27
2019-01-28T03:16:44.822Z,98015.64
2019-01-28T03:19:09.240Z,98017.18
2019-01-28T03:21:33.643Z,98024.19
2019-01-28T03:23:58.039Z,98025.67
2019-01-28T03:26:22.455Z,98022.94
2019-01-28T03:28:46.849Z,98019.12
2019-01-28T03:31:11.272Z,98016.47
2019-01-28T03:33:35.661Z,98022.28
2019-01-28T03:36:00.044Z,98023.99
2019-01-28T03:38:24.438Z,98021.28
2019-01-28T03:40:48.853Z,98013.84
2019-01-28T03:43:13.259Z,98014.63
2019-01-28T03:45:37.651Z,98019.81
2019-01-28T03:48:04.392Z,98018.42
2019-01-28T03:50:28.772Z,98013.61
2019-01-28T03:52:53.264Z,98018.45
2019-01-28T03:55:17.721Z,98014.24
2019-01-28T03:57:42.283Z,98015.03
2019-01-28T04:00:09.750Z,98023.37
2019-01-28T04:02:34.148Z,98022.54
2019-01-28T04:04:58.539Z,98017.27
2019-01-28T04:07:22.948Z,98018.81
2019-01-28T04:09:47.435Z,98014.39
2019-01-28T04:12:11.885Z,98015.12
2019-01-28T04:14:36.265Z,98020.19
2019-01-28T04:17:00.715Z,98012.88
2019-01-28T04:19:25.094Z,98013.27
2019-01-28T04:21:49.490Z,98010.39
2019-01-28T04:24:13.894Z,98010.10
2019-01-28T04:26:38.282Z,98014.83
2019-01-28T04:29:02.680Z,98008.73
2019-01-28T04:31:28.242Z,98002.80
2019-01-28T04:33:52.666Z,98005.25
2019-01-28T04:36:17.047Z,98009.51
2019-01-28T04:38:41.439Z,98013.82
2019-01-28T04:41:05.844Z,98004.60
2019-01-28T04:43:30.246Z,98002.15
2019-01-28T04:45:54.673Z,97999.59
2019-01-28T04:48:19.071Z,98001.57
2019-01-28T04:50:43.476Z,97995.00
2019-01-28T04:53:07.876Z,97992.05
2019-01-28T04:55:32.283Z,97996.54
2019-01-28T04:57:56.704Z,97989.55
2019-01-28T05:00:25.916Z,97991.82
2019-01-28T05:02:50.401Z,97988.85
2019-01-28T05:05:15.072Z,97992.42
2019-01-28T05:07:39.554Z,97994.73
2019-01-28T05:10:07.269Z,97997.19
2019-01-28T05:12:31.679Z,97996.49
2019-01-28T05:14:56.081Z,97996.06
2019-01-28T05:17:20.476Z,98001.73
2019-01-28T05:19:44.909Z,97995.35
2019-01-28T05:22:09.305Z,97990.41
2019-01-28T05:24:33.725Z,97990.21
2019-01-28T05:26:58.123Z,97991.91
2019-01-28T05:29:22.516Z,97988.15
2019-01-28T05:31:46.963Z,97984.32
2019-01-28T05:34:11.363Z,97993.49
2019-01-28T05:36:35.801Z,97985.69
2019-01-28T05:39:00.215Z,97985.08
2019-01-28T05:41:24.645Z,97985.86
2019-01-28T05:43:49.050Z,97980.54
2019-01-28T05:46:13.516Z,97983.14
2019-01-28T05:48:37.909Z,97979.94
2019-01-28T05:51:02.292Z,97989.25
2019-01-28T05:53:26.711Z,97934.08
2019-01-28T05:55:51.106Z,97986.20
2019-01-28T05:58:15.516Z,97979.02
2019-01-28T06:00:41.539Z,97983.75
2019-01-28T06:03:06.016Z,97987.84
2019-01-28T06:05:30.502Z,97988.77
2019-01-28T06:07:54.883Z,97985.56
2019-01-28T06:10:19.285Z,97987.70
2019-01-28T06:12:43.755Z,97989.52
2019-01-28T06:15:14.147Z,97983.66
2019-01-28T06:17:39.147Z,97983.92
2019-01-28T06:20:04.854Z,97986.00
2019-01-28T06:22:29.259Z,97987.27
2019-01-28T06:24:53.648Z,97989.55
2019-01-28T06:27:18.066Z,97995.37
2019-01-28T06:29:42.441Z,97986.05
2019-01-28T06:32:06.862Z,97996.44
2019-01-28T06:34:31.254Z,97999.47
2019-01-28T06:36:55.672Z,98001.93
2019-01-28T06:39:20.100Z,98004.67
2019-01-28T06:41:44.470Z,98002.69
2019-01-28T06:44:08.888Z,98005.27
2019-01-28T06:46:33.293Z,98005.45
2019-01-28T06:48:57.680Z,98006.97
2019-01-28T06:51:22.087Z,98006.06
2019-01-28T06:53:46.478Z,98017.64
2019-01-28T06:56:10.878Z,98017.03
2019-01-28T06:58:35.258Z,98010.32
2019-01-28T07:00:59.688Z,98015.20
2019-01-28T07:03:24.157Z,98004.37
2019-01-28T07:05:48.591Z,98012.83
2019-01-28T07:08:12.975Z,98010.98
2019-01-28T07:10:37.364Z,98017.51
2019-01-28T07:13:01.762Z,98018.28
2019-01-28T07:15:26.224Z,97969.81
2019-01-28T07:17:54.979Z,98020.55
2019-01-28T07:20:23.679Z,98023.45
2019-01-28T07:22:48.090Z,98030.17
2019-01-28T07:25:12.601Z,98028.33
2019-01-28T07:27:37.003Z,98033.09
2019-01-28T07:30:01.424Z,98035.98
2019-01-28T07:32:25.806Z,98038.86
2019-01-28T07:34:50.215Z,98035.98
2019-01-28T07:37:14.609Z,98033.55
2019-01-28T07:39:39.015Z,98039.66
2019-01-28T07:42:03.425Z,98034.62
2019-01-28T07:44:27.814Z,98036.44
2019-01-28T07:46:52.247Z,98040.26
2019-01-28T07:49:16.619Z,98033.55
2019-01-28T07:51:42.666Z,98032.17
2019-01-28T07:54:07.055Z,98033.21
2019-01-28T07:56:33.235Z,98032.47
2019-01-28T07:58:57.653Z,98033.52
2019-01-28T08:01:22.035Z,98038.73
2019-01-28T08:03:46.441Z,98035.37
2019-01-28T08:06:10.963Z,98037.50
2019-01-28T08:08:35.438Z,97988.05
2019-01-28T08:10:59.834Z,98036.76
2019-01-28T08:13:24.216Z,98042.70
2019-01-28T08:15:48.625Z,98046.52
2019-01-28T08:18:13.013Z,98046.84
2019-01-28T08:20:37.407Z,98052.48
2019-01-28T08:23:01.811Z,98052.93
2019-01-28T08:25:26.223Z,98055.53
2019-01-28T08:27:50.677Z,98058.45
2019-01-28T08:30:23.695Z,98056.61
2019-01-28T08:32:48.072Z,98050.52
2019-01-28T08:35:12.995Z,98051.59
2019-01-28T08:37:37.417Z,98050.05
2019-01-28T08:40:01.802Z,98045.76
2019-01-28T08:42:26.218Z,98050.16
2019-01-28T08:44:50.615Z,98049.41
2019-01-28T08:47:15.102Z,98043.17
2019-01-28T08:49:39.497Z,98041.62
2019-01-28T08:52:04.157Z,98048.05
2019-01-28T08:54:28.648Z,98040.84
2019-01-28T08:56:53.032Z,98042.08
2019-01-28T08:59:17.433Z,98039.33
2019-01-28T09:01:41.915Z,98045.42
2019-01-28T09:04:06.372Z,98048.50
2019-01-28T09:06:30.779Z,98049.14
2019-01-28T09:08:55.258Z,98053.54
2019-01-28T09:11:19.734Z,98047.41
2019-01-28T09:13:44.128Z,98049.13
2019-01-28T09:16:08.532Z,98045.59
2019-01-28T09:18:32.923Z,98049.68
2019-01-28T09:20:57.318Z,98052.73
2019-01-28T09:23:22.657Z,98053.64
2019-01-28T09:25:47.129Z,98056.85
2019-01-28T09:28:11.608Z,98060.95
2019-01-28T09:30:36.662Z,98057.34
2019-01-28T09:33:01.114Z,98063.73
2019-01-28T09:35:25.705Z,98059.89
2019-01-28T09:37:50.169Z,98061.86
2019-01-28T09:40:20.285Z,98059.86
2019-01-28T09:42:44.783Z,98063.75
2019-01-28T09:45:12.209Z,98068.45
2019-01-28T09:47:36.687Z,98060.31
2019-01-28T09:50:03.974Z,98058.35
2019-01-28T09:52:28.374Z,98065.02
2019-01-28T09:54:52.800Z,98060.48
2019-01-28T09:57:17.180Z,98069.30
2019-01-28T09:59:41.557Z,98069.69
2019-01-28T10:02:05.965Z,98078.30
2019-01-28T10:04:30.414Z,98070.03
2019-01-28T10:06:54.841Z,98073.84
2019-01-28T10:09:19.223Z,98000.13
2019-01-28T10:11:43.625Z,98076.73
2019-01-28T10:14:08.116Z,98081.20
2019-01-28T10:16:32.509Z,98080.71
2019-01-28T10:18:56.929Z,98078.59
2019-01-28T10:21:21.364Z,98079.61
2019-01-28T10:23:45.808Z,98080.19
2019-01-28T10:26:10.199Z,98076.60
2019-01-28T10:28:34.669Z,98086.09
2019-01-28T10:30:59.153Z,98075.61
2019-01-28T10:33:23.542Z,98082.58
2019-01-28T10:35:48.084Z,98081.04
2019-01-28T10:38:12.921Z,98078.50
2019-01-28T10:40:42.157Z,98082.87
2019-01-28T10:43:07.525Z,98078.73
2019-01-28T10:45:31.921Z,98083.77
2019-01-28T10:48:00.617Z,98076.88
2019-01-28T10:50:24.533Z,98082.48
2019-01-28T10:52:49.127Z,98081.56
2019-01-28T10:55:15.541Z,98085.72
2019-01-28T10:57:39.946Z,98080.34
2019-01-28T11:00:11.588Z,98083.03
2019-01-28T11:02:33.649Z,98085.66
2019-01-28T11:04:58.036Z,98088.64
2019-01-28T11:07:22.515Z,98086.42
2019-01-28T11:09:46.965Z,98084.34
2019-01-28T11:12:11.432Z,98076.81
2019-01-28T11:14:35.902Z,98086.71
2019-01-28T11:17:00.350Z,98074.38
2019-01-28T11:19:24.874Z,98084.27
2019-01-28T11:21:49.263Z,98078.39
2019-01-28T11:24:13.614Z,98077.09
2019-01-28T11:26:38.049Z,98073.56
2019-01-28T11:29:02.427Z,98075.63
2019-01-28T11:31:26.924Z,98075.91
2019-01-28T11:33:51.328Z,98086.95
2019-01-28T11:36:15.798Z,98085.16
2019-01-28T11:38:40.313Z,98084.10
2019-01-28T11:41:04.994Z,98082.89
2019-01-28T11:43:29.396Z,98078.98
2019-01-28T11:45:56.577Z,98083.30
2019-01-28T11:48:21.280Z,98086.86
2019-01-28T11:50:45.749Z,98091.32
2019-01-28T11:53:10.159Z,98089.01
2019-01-28T11:55:34.624Z,98088.28
2019-01-28T11:57:59.006Z,98093.14
2019-01-28T12:00:36.611Z,98099.59
2019-01-28T12:03:00.992Z,98100.05
2019-01-28T12:05:25.399Z,98106.90
2019-01-28T12:07:49.872Z,98110.03
2019-01-28T12:10:14.392Z,98107.47
2019-01-28T12:12:38.799Z,98112.09
2019-01-28T12:15:03.875Z,98110.84
2019-01-28T12:17:28.268Z,98118.45
2019-01-28T12:19:52.695Z,98120.05
2019-01-28T12:22:17.194Z,98117.98
2019-01-28T12:24:41.614Z,98122.77
2019-01-28T12:27:06.015Z,98122.28
2019-01-28T12:29:30.439Z,98124.56
2019-01-28T12:31:54.836Z,98124.43
2019-01-28T12:34:19.220Z,98129.68
2019-01-28T12:36:43.651Z,98124.09
2019-01-28T12:39:08.315Z,98133.87
2019-01-28T12:41:32.698Z,98140.09
2019-01-28T12:43:57.122Z,98137.34
2019-01-28T12:46:21.502Z,98144.88
2019-01-28T12:48:45.967Z,98149.47
2019-01-28T12:51:10.375Z,98151.33
2019-01-28T12:53:34.770Z,98156.57
2019-01-28T12:55:59.188Z,98154.42
2019-01-28T12:58:23.619Z,98151.51
2019-01-28T13:00:49.801Z,98155.42
2019-01-28T13:03:14.292Z,98154.70
2019-01-28T13:05:39.536Z,98154.91
2019-01-28T13:08:04.370Z,98155.30
2019-01-28T13:10:28.993Z,98156.91
2019-01-28T13:12:53.471Z,98158.98
2019-01-28T13:15:26.572Z,98159.82
2019-01-28T13:17:51.204Z,98163.31
2019-01-28T13:20:15.750Z,98162.58
2019-01-28T13:22:44.818Z,98165.44
2019-01-28T13:25:12.581Z,98165.30
2019-01-28T13:27:35.442Z,98167.70
2019-01-28T13:29:59.835Z,98171.68
2019-01-28T13:32:24.249Z,98172.68
2019-01-28T13:34:48.646Z,98175.86
2019-01-28T13:37:13.076Z,98181.56
2019-01-28T13:39:37.473Z,98180.45
2019-01-28T13:42:01.890Z,98182.33
2019-01-28T13:44:26.290Z,98186.07
2019-01-28T13:46:50.669Z,98187.25
2019-01-28T13:49:15.101Z,98192.69
2019-01-28T13:51:39.554Z,98196.20
2019-01-28T13:54:04.009Z,98196.94
2019-01-28T13:56:28.429Z,98204.91
2019-01-28T13:58:52.898Z,98199.02
2019-01-28T14:01:17.304Z,98206.55
2019-01-28T14:03:41.695Z,98207.30
2019-01-28T14:06:06.244Z,98218.13
2019-01-28T14:08:30.642Z,98225.81
2019-01-28T14:10:55.039Z,98223.63
2019-01-28T14:13:19.469Z,98237.45
2019-01-28T14:15:43.877Z,98225.00
2019-01-28T14:18:09.422Z,98228.97
2019-01-28T14:20:35.961Z,98236.77
2019-01-28T14:23:00.619Z,98240.39
2019-01-28T14:25:25.118Z,98239.58
2019-01-28T14:27:50.104Z,98238.95
2019-01-28T14:30:17.569Z,98243.50
2019-01-28T14:32:41.977Z,98249.47
2019-01-28T14:35:07.231Z,98259.23
2019-01-28T14:37:31.641Z,98261.66
2019-01-28T14:39:56.029Z,98264.28
2019-01-28T14:42:20.428Z,98268.56
2019-01-28T14:44:44.840Z,98270.11
2019-01-28T14:47:09.437Z,98271.63
2019-01-28T14:49:33.856Z,98272.23
2019-01-28T14:51:58.267Z,98275.59
2019-01-28T14:54:22.680Z,98281.42
2019-01-28T14:56:47.137Z,98277.13
2019-01-28T14:59:11.567Z,98280.17
2019-01-28T15:01:35.943Z,98280.20
2019-01-28T15:04:00.333Z,98284.63
2019-01-28T15:06:24.764Z,98288.77
2019-01-28T15:08:49.153Z,98292.49
2019-01-28T15:11:13.637Z,98290.05
2019-01-28T15:13:38.051Z,98291.10
2019-01-28T15:16:02.460Z,98295.66
2019-01-28T15:18:26.907Z,98302.55
2019-01-28T15:20:51.312Z,98301.31
2019-01-28T15:23:15.743Z,98301.64
2019-01-28T15:25:40.193Z,98304.72
2019-01-28T15:28:04.785Z,98314.52
2019-01-28T15:30:30.703Z,98313.30
2019-01-28T15:32:55.214Z,98316.20
2019-01-28T15:35:19.613Z,98321.04
2019-01-28T15:37:43.981Z,98318.87
2019-01-28T15:40:11.763Z,98325.63
2019-01-28T15:42:36.211Z,98329.28
2019-01-28T15:45:00.622Z,98336.83
2019-01-28T15:47:28.086Z,98339.77
2019-01-28T15:49:52.482Z,98339.34
2019-01-28T15:52:16.895Z,98344.47
2019-01-28T15:54:41.302Z,98349.48
2019-01-28T15:57:05.704Z,98352.77
2019-01-28T15:59:30.114Z,98352.98
2019-01-28T16:01:54.531Z,98365.20
2019-01-28T16:04:19.032Z,98363.16
2019-01-28T16:06:43.670Z,98368.70
2019-01-28T16:09:08.491Z,98371.28
2019-01-28T16:11:32.889Z,98370.45
2019-01-28T16:13:57.325Z,98377.53
2019-01-28T16:16:21.814Z,98372.25
2019-01-28T16:18:46.186Z,98378.45
2019-01-28T16:21:10.586Z,98383.84
2019-01-28T16:23:35.069Z,98392.81
2019-01-28T16:25:59.469Z,98393.89
2019-01-28T16:28:23.882Z,98405.08
2019-01-28T16:30:48.634Z,98404.76
2019-01-28T16:33:13.054Z,98408.34
2019-01-28T16:35:37.593Z,98409.20
2019-01-28T16:38:01.997Z,98416.03
2019-01-28T16:40:30.198Z,98412.08
2019-01-28T16:42:54.769Z,98413.29
2019-01-28T16:45:19.503Z,98412.53
2019-01-28T16:47:43.925Z,98417.21
2019-01-28T16:50:11.611Z,98426.62
2019-01-28T16:52:36.019Z,98433.81
2019-01-28T16:55:00.414Z,98434.52
2019-01-28T16:57:24.793Z,98438.42
2019-01-28T16:59:52.615Z,98438.50
2019-01-28T17:02:17.183Z,98445.78
2019-01-28T17:04:41.611Z,98444.75
2019-01-28T17:07:06.021Z,98442.30
2019-01-28T17:09:30.440Z,98452.80
2019-01-28T17:11:54.854Z,98451.88
2019-01-28T17:14:19.351Z,98453.78
2019-01-28T17:16:43.823Z,98465.80
2019-01-28T17:19:08.300Z,98457.84
2019-01-28T17:21:32.727Z,98465.72
2019-01-28T17:23:57.124Z,98466.12
2019-01-28T17:26:21.516Z,98473.50
2019-01-28T17:28:45.929Z,98480.34
2019-01-28T17:31:10.333Z,98474.38
2019-01-28T17:33:34.743Z,98476.19
2019-01-28T17:35:59.144Z,98484.76
2019-01-28T17:38:23.528Z,98490.51
2019-01-28T17:40:48.008Z,98493.82
2019-01-28T17:43:12.637Z,98498.88
2019-01-28T17:45:37.127Z,98501.77
2019-01-28T17:48:01.520Z,98507.55
2019-01-28T17:50:26.862Z,98513.84
2019-01-28T17:52:51.265Z,98512.54
2019-01-28T17:55:16.222Z,98516.94
2019-01-28T17:57:40.689Z,98524.70
2019-01-28T18:00:11.081Z,98521.76
2019-01-28T18:02:35.573Z,98528.55
2019-01-28T18:04:59.979Z,98537.75
2019-01-28T18:07:24.423Z,98530.92
2019-01-28T18:09:48.847Z,98534.56
2019-01-28T18:12:13.304Z,98542.34
2019-01-28T18:14:37.689Z,98545.50
2019-01-28T18:17:02.101Z,98549.55
2019-01-28T18:19:26.547Z,98547.05
2019-01-28T18:21:50.947Z,98541.74
2019-01-28T18:24:15.371Z,98548.17
2019-01-28T18:26:39.790Z,98550.27
2019-01-28T18:29:04.548Z,98552.35
2019-01-28T18:31:28.970Z,98550.66
2019-01-28T18:33:53.375Z,98560.55
2019-01-28T18:36:17.794Z,98563.23
2019-01-28T18:38:42.279Z,98574.24
2019-01-28T18:41:06.766Z,98573.16
2019-01-28T18:43:31.186Z,98581.88
2019-01-28T18:45:55.590Z,98575.98
2019-01-28T18:48:20.067Z,98576.80
2019-01-28T18:50:44.536Z,98582.69
2019-01-28T18:53:08.964Z,98589.14
2019-01-28T18:55:33.442Z,98588.67
2019-01-28T18:57:57.852Z,98595.69
2019-01-28T19:00:29.507Z,98601.95
2019-01-28T19:02:54.442Z,98598.61
2019-01-28T19:05:37.569Z,98604.10
2019-01-28T19:08:12.332Z,98604.05
2019-01-28T19:10:38.395Z,98612.24
2019-01-28T19:13:04.521Z,98610.59
2019-01-28T19:15:30.556Z,98617.78
2019-01-28T19:17:59.311Z,98632.56
2019-01-28T19:20:25.373Z,98636.73
2019-01-28T19:22:49.888Z,98638.16
2019-01-28T19:25:14.366Z,98652.10
2019-01-28T19:27:38.763Z,98652.20
2019-01-28T19:30:04.164Z,98658.80
2019-01-28T19:32:28.632Z,98661.72
2019-01-28T19:34:53.067Z,98674.44
2019-01-28T19:37:17.466Z,98683.17
2019-01-28T19:39:41.873Z,98688.39
2019-01-28T19:42:06.440Z,98694.89
2019-01-28T19:44:30.894Z,98692.75
2019-01-28T19:46:55.337Z,98703.04
2019-01-28T19:49:19.717Z,98709.38
2019-01-28T19:51:44.131Z,98711.25
2019-01-28T19:54:08.525Z,98719.63
2019-01-28T19:56:32.930Z,98729.50
2019-01-28T19:58:57.333Z,98728.30
2019-01-28T20:01:21.740Z,98733.86
2019-01-28T20:03:46.141Z,98736.84
2019-01-28T20:06:10.624Z,98737.87
2019-01-28T20:08:35.041Z,98750.41
2019-01-28T20:10:59.472Z,98751.84
2019-01-28T20:13:23.892Z,98762.19
2019-01-28T20:15:48.289Z,98764.52
2019-01-28T20:18:12.706Z,98774.64
2019-01-28T20:20:37.102Z,98778.25
2019-01-28T20:23:01.534Z,98784.56
2019-01-28T20:25:26.021Z,98791.44
2019-01-28T20:27:50.390Z,98797.58
2019-01-28T20:30:26.028Z,98809.99
2019-01-28T20:32:50.775Z,98810.26
2019-01-28T20:35:15.514Z,98806.36
2019-01-28T20:37:40.035Z,98824.51
2019-01-28T20:40:07.767Z,98834.99
2019-01-28T20:42:32.161Z,98835.83
2019-01-28T20:44:56.596Z,98841.92
2019-01-28T20:47:21.042Z,98849.59
2019-01-28T20:49:45.435Z,98856.38
2019-01-28T20:52:09.863Z,98858.87
2019-01-28T20:54:34.222Z,98807.81
2019-01-28T20:56:58.687Z,98870.43
2019-01-28T20:59:23.078Z,98873.72
2019-01-28T21:01:47.537Z,98879.53
2019-01-28T21:04:11.922Z,98886.56
2019-01-28T21:06:36.354Z,98883.13
2019-01-28T21:09:00.787Z,98890.63
2019-01-28T21:11:25.206Z,98891.20
2019-01-28T21:13:49.587Z,98902.07
2019-01-28T21:16:14.064Z,98904.95
2019-01-28T21:18:38.466Z,98912.55
2019-01-28T21:21:02.895Z,98918.75
2019-01-28T21:23:27.266Z,98927.50
2019-01-28T21:25:51.696Z,98929.66
2019-01-28T21:28:16.094Z,98932.52
2019-01-28T21:30:40.508Z,98928.12
2019-01-28T21:33:05.078Z,98942.84
2019-01-28T21:35:34.210Z,98940.72
2019-01-28T21:38:01.087Z,98951.09
2019-01-28T21:40:25.516Z,98953.82
2019-01-28T21:42:49.941Z,98959.66
2019-01-28T21:45:15.841Z,98961.70
2019-01-28T21:47:41.864Z,98962.80
2019-01-28T21:50:08.979Z,98968.56
2019-01-28T21:52:33.364Z,98971.73
2019-01-28T21:54:57.784Z,98975.72
2019-01-28T21:57:22.178Z,98980.06
2019-01-28T21:59:46.599Z,98984.64
2019-01-28T22:02:11.016Z,98988.56
2019-01-28T22:04:35.415Z,98993.11
2019-01-28T22:06:59.820Z,99000.78
2019-01-28T22:09:24.275Z,98994.22
2019-01-28T22:11:48.682Z,99004.35
2019-01-28T22:14:13.070Z,99003.48
2019-01-28T22:16:37.454Z,98999.19
2019-01-28T22:19:01.881Z,99013.22
2019-01-28T22:21:26.262Z,99012.19
2019-01-28T22:23:50.680Z,99012.77
2019-01-28T22:26:15.073Z,99021.26
2019-01-28T22:28:39.494Z,99025.27
2019-01-28T22:31:03.967Z,99027.64
2019-01-28T22:33:28.356Z,99032.75
2019-01-28T22:35:52.764Z,99035.06
2019-01-28T22:38:17.161Z,99033.63
2019-01-28T22:40:41.592Z,99037.95
2019-01-28T22:43:06.128Z,99049.33
2019-01-28T22:45:30.524Z,99041.91
2019-01-28T22:47:54.915Z,99047.95
2019-01-28T22:50:20.868Z,99054.07
2019-01-28T22:52:45.448Z,99062.84
2019-01-28T22:55:12.677Z,99065.33
2019-01-28T22:57:37.085Z,99064.55
2019-01-28T23:00:01.491Z,99073.09
2019-01-28T23:08:50.293Z,99078.54
2019-01-28T23:11:14.784Z,99089.39
2019-01-28T23:13:39.262Z,99085.34
2019-01-28T23:16:03.953Z,99081.68
2019-01-28T23:18:28.349Z,99086.05
2019-01-28T23:20:52.847Z,99101.63
2019-01-28T23:23:17.259Z,99103.46
2019-01-28T23:25:41.818Z,99108.02
2019-01-28T23:28:06.355Z,99108.55
2019-01-28T23:30:30.839Z,99110.18
2019-01-28T23:32:56.850Z,99116.57
2019-01-28T23:35:21.275Z,99123.40
2019-01-28T23:37:45.736Z,99129.55
2019-01-28T23:40:10.364Z,99134.45
2019-01-28T23:42:35.202Z,99135.92
2019-01-28T23:44:59.658Z,99136.58
2019-01-28T23:47:27.118Z,99141.59
2019-01-28T23:49:51.598Z,99144.81
2019-01-28T23:52:24.554Z,99145.91
2019-01-28T23:54:42.100Z,99138.06
2019-01-28T23:57:06.610Z,99155.89
2019-01-28T23:59:31.011Z,99154.63
